sensor_id;sensor_type;location;lat;lon;timestamp;pressure;altitude;pressure_sealevel;temperature;humidity
35435;BME280;21556;55.782;37.528;2023-04-15T00:00:49;100846.22;;;4.24;25.21
35435;BME280;21556;55.782;37.528;2023-04-15T00:03:16;100850.69;;;4.12;25.11
35435;BME280;21556;55.782;37.528;2023-04-15T00:05:43;100848.75;;;4.37;25.06
35435;BME280;21556;55.782;37.528;2023-04-15T00:08:12;100858.09;;;3.77;25.18
35435;BME280;21556;55.782;37.528;2023-04-15T00:10:43;100863.50;;;3.80;25.29
35435;BME280;21556;55.782;37.528;2023-04-15T00:13:11;100866.38;;;3.85;25.84
35435;BME280;21556;55.782;37.528;2023-04-15T00:16:02;100879.03;;;3.94;25.75
35435;BME280;21556;55.782;37.528;2023-04-15T00:18:31;100873.72;;;4.20;25.41
35435;BME280;21556;55.782;37.528;2023-04-15T00:21:01;100871.09;;;4.05;25.46
35435;BME280;21556;55.782;37.528;2023-04-15T00:23:33;100873.94;;;3.67;25.97
35435;BME280;21556;55.782;37.528;2023-04-15T00:25:59;100883.56;;;3.42;25.74
35435;BME280;21556;55.782;37.528;2023-04-15T00:28:26;100868.97;;;3.85;26.06
35435;BME280;21556;55.782;37.528;2023-04-15T00:30:52;100878.59;;;3.73;26.17
35435;BME280;21556;55.782;37.528;2023-04-15T00:33:18;100878.94;;;3.92;25.42
35435;BME280;21556;55.782;37.528;2023-04-15T00:35:45;100885.94;;;3.93;25.65
35435;BME280;21556;55.782;37.528;2023-04-15T00:38:20;100883.72;;;3.58;26.47
35435;BME280;21556;55.782;37.528;2023-04-15T00:40:52;100894.34;;;3.76;26.03
35435;BME280;21556;55.782;37.528;2023-04-15T00:43:22;100902.56;;;3.69;26.07
35435;BME280;21556;55.782;37.528;2023-04-15T00:45:55;100903.72;;;3.46;25.89
35435;BME280;21556;55.782;37.528;2023-04-15T00:48:23;100901.41;;;3.50;25.69
35435;BME280;21556;55.782;37.528;2023-04-15T00:50:53;100903.31;;;3.81;25.74
35435;BME280;21556;55.782;37.528;2023-04-15T00:53:20;100910.31;;;3.82;25.90
35435;BME280;21556;55.782;37.528;2023-04-15T00:55:52;100918.13;;;3.69;26.01
35435;BME280;21556;55.782;37.528;2023-04-15T00:58:22;100914.38;;;3.37;26.38
35435;BME280;21556;55.782;37.528;2023-04-15T01:00:59;100918.69;;;3.10;27.04
35435;BME280;21556;55.782;37.528;2023-04-15T01:03:25;100922.66;;;3.05;26.53
35435;BME280;21556;55.782;37.528;2023-04-15T01:05:52;100922.56;;;3.30;26.94
35435;BME280;21556;55.782;37.528;2023-04-15T01:08:27;100922.63;;;3.58;26.37
35435;BME280;21556;55.782;37.528;2023-04-15T01:10:57;100931.03;;;3.41;26.25
35435;BME280;21556;55.782;37.528;2023-04-15T01:13:28;100940.00;;;3.19;26.67
35435;BME280;21556;55.782;37.528;2023-04-15T01:15:55;100938.22;;;3.18;26.34
35435;BME280;21556;55.782;37.528;2023-04-15T01:18:22;100938.41;;;3.48;26.61
35435;BME280;21556;55.782;37.528;2023-04-15T01:20:48;100937.91;;;3.40;26.52
35435;BME280;21556;55.782;37.528;2023-04-15T01:23:14;100942.09;;;3.11;26.81
35435;BME280;21556;55.782;37.528;2023-04-15T01:25:42;100940.94;;;3.20;26.76
35435;BME280;21556;55.782;37.528;2023-04-15T01:28:12;100943.66;;;2.83;26.54
35435;BME280;21556;55.782;37.528;2023-04-15T01:30:38;100940.72;;;3.43;26.42
35435;BME280;21556;55.782;37.528;2023-04-15T01:33:06;100943.91;;;2.99;26.85
35435;BME280;21556;55.782;37.528;2023-04-15T01:35:59;100948.91;;;3.36;26.84
35435;BME280;21556;55.782;37.528;2023-04-15T01:38:25;100961.25;;;3.13;26.72
35435;BME280;21556;55.782;37.528;2023-04-15T01:40:54;100954.28;;;3.26;27.18
35435;BME280;21556;55.782;37.528;2023-04-15T01:43:27;100963.16;;;3.29;27.23
35435;BME280;21556;55.782;37.528;2023-04-15T01:45:58;100961.75;;;3.08;26.77
35435;BME280;21556;55.782;37.528;2023-04-15T01:48:25;100966.03;;;2.94;27.21
35435;BME280;21556;55.782;37.528;2023-04-15T01:50:56;100961.91;;;2.84;27.34
35435;BME280;21556;55.782;37.528;2023-04-15T01:53:24;100968.09;;;2.86;26.99
35435;BME280;21556;55.782;37.528;2023-04-15T01:55:51;100969.19;;;2.90;27.46
35435;BME280;21556;55.782;37.528;2023-04-15T01:58:20;100970.94;;;3.03;27.02
35435;BME280;21556;55.782;37.528;2023-04-15T02:00:48;100966.16;;;3.22;26.53
35435;BME280;21556;55.782;37.528;2023-04-15T02:03:16;100979.03;;;3.21;26.78
35435;BME280;21556;55.782;37.528;2023-04-15T02:05:44;100975.72;;;3.10;27.55
35435;BME280;21556;55.782;37.528;2023-04-15T02:08:14;100986.97;;;2.59;27.12
35435;BME280;21556;55.782;37.528;2023-04-15T02:10:46;100985.91;;;3.20;26.98
35435;BME280;21556;55.782;37.528;2023-04-15T02:13:19;100989.88;;;3.15;26.92
35435;BME280;21556;55.782;37.528;2023-04-15T02:15:56;100985.63;;;3.29;26.35
35435;BME280;21556;55.782;37.528;2023-04-15T02:18:29;101000.75;;;2.71;27.25
35435;BME280;21556;55.782;37.528;2023-04-15T02:20:59;101005.94;;;2.71;26.94
35435;BME280;21556;55.782;37.528;2023-04-15T02:23:34;101003.91;;;2.92;27.04
35435;BME280;21556;55.782;37.528;2023-04-15T02:26:04;101013.66;;;2.58;27.37
35435;BME280;21556;55.782;37.528;2023-04-15T02:28:45;101015.81;;;2.52;27.91
35435;BME280;21556;55.782;37.528;2023-04-15T02:31:18;101011.59;;;2.65;27.22
35435;BME280;21556;55.782;37.528;2023-04-15T02:33:50;101020.94;;;2.38;27.13
35435;BME280;21556;55.782;37.528;2023-04-15T02:36:17;101013.91;;;2.74;26.96
35435;BME280;21556;55.782;37.528;2023-04-15T02:38:47;101015.50;;;3.10;26.62
35435;BME280;21556;55.782;37.528;2023-04-15T02:41:17;101032.53;;;2.69;27.15
35435;BME280;21556;55.782;37.528;2023-04-15T02:43:50;101030.16;;;2.72;27.27
35435;BME280;21556;55.782;37.528;2023-04-15T02:46:17;101044.06;;;2.60;26.82
35435;BME280;21556;55.782;37.528;2023-04-15T02:48:50;101040.13;;;2.65;27.25
35435;BME280;21556;55.782;37.528;2023-04-15T02:51:23;101053.06;;;2.65;27.45
35435;BME280;21556;55.782;37.528;2023-04-15T02:53:53;101050.69;;;2.32;27.90
35435;BME280;21556;55.782;37.528;2023-04-15T02:56:21;101045.75;;;2.85;27.48
35435;BME280;21556;55.782;37.528;2023-04-15T02:58:49;101057.06;;;2.49;27.96
35435;BME280;21556;55.782;37.528;2023-04-15T03:01:29;101060.25;;;2.70;27.32
35435;BME280;21556;55.782;37.528;2023-04-15T03:04:02;101049.69;;;2.92;27.29
35435;BME280;21556;55.782;37.528;2023-04-15T03:06:30;101061.38;;;2.98;27.10
35435;BME280;21556;55.782;37.528;2023-04-15T03:08:57;101067.28;;;2.59;27.58
35435;BME280;21556;55.782;37.528;2023-04-15T03:11:28;101068.13;;;2.34;27.85
35435;BME280;21556;55.782;37.528;2023-04-15T03:13:56;101072.47;;;2.22;28.14
35435;BME280;21556;55.782;37.528;2023-04-15T03:16:29;101075.72;;;2.56;28.04
35435;BME280;21556;55.782;37.528;2023-04-15T03:18:58;101072.50;;;2.35;28.14
35435;BME280;21556;55.782;37.528;2023-04-15T03:21:25;101069.44;;;2.78;27.57
35435;BME280;21556;55.782;37.528;2023-04-15T03:23:54;101075.06;;;2.84;28.13
35435;BME280;21556;55.782;37.528;2023-04-15T03:26:28;101073.59;;;2.87;27.48
35435;BME280;21556;55.782;37.528;2023-04-15T03:28:59;101080.91;;;2.56;28.31
35435;BME280;21556;55.782;37.528;2023-04-15T03:31:29;101077.22;;;2.53;27.95
35435;BME280;21556;55.782;37.528;2023-04-15T03:33:57;101085.81;;;2.40;28.31
35435;BME280;21556;55.782;37.528;2023-04-15T03:36:24;101082.47;;;2.29;28.98
35435;BME280;21556;55.782;37.528;2023-04-15T03:38:52;101087.34;;;2.50;28.07
35435;BME280;21556;55.782;37.528;2023-04-15T03:41:19;101090.06;;;2.51;28.11
35435;BME280;21556;55.782;37.528;2023-04-15T03:43:46;101092.03;;;2.30;28.71
35435;BME280;21556;55.782;37.528;2023-04-15T03:46:13;101093.50;;;2.27;28.30
35435;BME280;21556;55.782;37.528;2023-04-15T03:48:43;101092.31;;;2.47;28.68
35435;BME280;21556;55.782;37.528;2023-04-15T03:51:10;101094.13;;;2.36;28.57
35435;BME280;21556;55.782;37.528;2023-04-15T03:53:37;101103.31;;;1.96;28.71
35435;BME280;21556;55.782;37.528;2023-04-15T03:56:07;101106.00;;;2.21;28.87
35435;BME280;21556;55.782;37.528;2023-04-15T03:58:34;101105.19;;;2.33;28.42
35435;BME280;21556;55.782;37.528;2023-04-15T04:01:05;101108.41;;;2.54;28.11
35435;BME280;21556;55.782;37.528;2023-04-15T04:03:32;101113.97;;;2.35;28.74
35435;BME280;21556;55.782;37.528;2023-04-15T04:06:05;101110.94;;;2.17;28.49
35435;BME280;21556;55.782;37.528;2023-04-15T04:08:35;101115.13;;;1.92;29.08
35435;BME280;21556;55.782;37.528;2023-04-15T04:11:08;101111.97;;;2.20;29.03
35435;BME280;21556;55.782;37.528;2023-04-15T04:13:45;101114.06;;;2.49;28.40
35435;BME280;21556;55.782;37.528;2023-04-15T04:16:12;101115.16;;;2.52;28.44
35435;BME280;21556;55.782;37.528;2023-04-15T04:18:45;101112.66;;;2.29;28.58
35435;BME280;21556;55.782;37.528;2023-04-15T04:21:15;101120.25;;;2.39;28.99
35435;BME280;21556;55.782;37.528;2023-04-15T04:23:46;101122.53;;;2.71;28.43
35435;BME280;21556;55.782;37.528;2023-04-15T04:26:13;101120.81;;;2.47;28.43
35435;BME280;21556;55.782;37.528;2023-04-15T04:28:40;101124.75;;;2.41;28.63
35435;BME280;21556;55.782;37.528;2023-04-15T04:31:08;101129.28;;;2.81;28.29
35435;BME280;21556;55.782;37.528;2023-04-15T04:33:35;101135.72;;;2.74;28.10
35435;BME280;21556;55.782;37.528;2023-04-15T04:36:05;101137.69;;;2.53;28.38
35435;BME280;21556;55.782;37.528;2023-04-15T04:38:42;101126.91;;;2.84;28.42
35435;BME280;21556;55.782;37.528;2023-04-15T04:41:57;101130.19;;;2.81;27.91
35435;BME280;21556;55.782;37.528;2023-04-15T04:45:26;101131.59;;;2.89;28.01
35435;BME280;21556;55.782;37.528;2023-04-15T04:49:09;101122.72;;;3.11;27.81
35435;BME280;21556;55.782;37.528;2023-04-15T04:52:20;101131.03;;;2.94;28.06
35435;BME280;21556;55.782;37.528;2023-04-15T04:56:10;101129.66;;;2.74;28.37
35435;BME280;21556;55.782;37.528;2023-04-15T04:58:41;101129.44;;;3.59;27.18
35435;BME280;21556;55.782;37.528;2023-04-15T05:01:46;101122.34;;;3.43;27.19
35435;BME280;21556;55.782;37.528;2023-04-15T05:04:25;101116.78;;;3.77;27.31
35435;BME280;21556;55.782;37.528;2023-04-15T05:07:40;101129.03;;;3.14;27.42
35435;BME280;21556;55.782;37.528;2023-04-15T05:14:01;101134.38;;;3.68;27.45
35435;BME280;21556;55.782;37.528;2023-04-15T05:17:18;101133.41;;;3.16;27.74
35435;BME280;21556;55.782;37.528;2023-04-15T05:20:18;101128.41;;;3.44;27.30
35435;BME280;21556;55.782;37.528;2023-04-15T05:23:25;101138.66;;;3.04;27.70
35435;BME280;21556;55.782;37.528;2023-04-15T05:26:32;101131.56;;;3.01;28.18
35435;BME280;21556;55.782;37.528;2023-04-15T05:29:34;101138.53;;;3.52;27.55
35435;BME280;21556;55.782;37.528;2023-04-15T05:32:11;101143.75;;;3.27;27.28
35435;BME280;21556;55.782;37.528;2023-04-15T05:34:50;101130.06;;;3.30;27.50
35435;BME280;21556;55.782;37.528;2023-04-15T05:37:49;101121.09;;;3.76;27.39
35435;BME280;21556;55.782;37.528;2023-04-15T05:40:34;101135.00;;;3.90;26.81
35435;BME280;21556;55.782;37.528;2023-04-15T05:43:26;101149.47;;;3.35;27.73
35435;BME280;21556;55.782;37.528;2023-04-15T05:45:55;101153.41;;;3.05;27.77
35435;BME280;21556;55.782;37.528;2023-04-15T05:48:33;101144.09;;;3.45;27.78
35435;BME280;21556;55.782;37.528;2023-04-15T05:51:04;101141.88;;;3.38;27.62
35435;BME280;21556;55.782;37.528;2023-04-15T05:53:33;101141.06;;;3.77;27.25
35435;BME280;21556;55.782;37.528;2023-04-15T05:56:40;101133.88;;;4.13;27.14
35435;BME280;21556;55.782;37.528;2023-04-15T05:59:07;101151.75;;;4.48;26.49
35435;BME280;21556;55.782;37.528;2023-04-15T06:02:01;101143.97;;;4.08;26.99
35435;BME280;21556;55.782;37.528;2023-04-15T06:04:29;101150.16;;;4.24;26.91
35435;BME280;21556;55.782;37.528;2023-04-15T06:07:06;101147.69;;;4.80;26.22
35435;BME280;21556;55.782;37.528;2023-04-15T06:09:34;101158.84;;;3.98;27.02
35435;BME280;21556;55.782;37.528;2023-04-15T06:12:18;101155.09;;;4.32;26.42
35435;BME280;21556;55.782;37.528;2023-04-15T06:15:10;101158.66;;;4.08;26.73
35435;BME280;21556;55.782;37.528;2023-04-15T06:17:45;101158.63;;;4.61;26.51
35435;BME280;21556;55.782;37.528;2023-04-15T06:20:25;101143.66;;;4.85;25.97
35435;BME280;21556;55.782;37.528;2023-04-15T06:23:13;101144.50;;;5.12;25.76
35435;BME280;21556;55.782;37.528;2023-04-15T06:25:43;101145.00;;;5.79;24.77
35435;BME280;21556;55.782;37.528;2023-04-15T06:28:14;101142.50;;;6.25;24.59
35435;BME280;21556;55.782;37.528;2023-04-15T06:30:44;101142.13;;;6.65;24.09
35435;BME280;21556;55.782;37.528;2023-04-15T06:33:11;101141.69;;;7.05;23.75
35435;BME280;21556;55.782;37.528;2023-04-15T06:35:45;101134.91;;;7.41;22.83
35435;BME280;21556;55.782;37.528;2023-04-15T06:38:25;101142.31;;;6.84;23.71
35435;BME280;21556;55.782;37.528;2023-04-15T06:40:55;101133.41;;;7.46;22.92
35435;BME280;21556;55.782;37.528;2023-04-15T06:43:23;101135.31;;;8.18;22.83
35435;BME280;21556;55.782;37.528;2023-04-15T06:45:50;101137.22;;;7.87;22.19
35435;BME280;21556;55.782;37.528;2023-04-15T06:48:18;101133.53;;;8.35;21.90
35435;BME280;21556;55.782;37.528;2023-04-15T06:50:45;101135.00;;;8.66;21.20
35435;BME280;21556;55.782;37.528;2023-04-15T06:53:15;101125.97;;;9.16;20.78
35435;BME280;21556;55.782;37.528;2023-04-15T06:55:45;101124.59;;;9.05;20.81
35435;BME280;21556;55.782;37.528;2023-04-15T06:58:13;101123.19;;;9.73;20.37
35435;BME280;21556;55.782;37.528;2023-04-15T07:00:40;101117.63;;;9.44;20.55
35435;BME280;21556;55.782;37.528;2023-04-15T07:06:55;101113.28;;;9.25;19.97
35435;BME280;21556;55.782;37.528;2023-04-15T07:09:26;101115.22;;;10.32;19.48
35435;BME280;21556;55.782;37.528;2023-04-15T07:11:53;101110.25;;;10.19;19.86
35435;BME280;21556;55.782;37.528;2023-04-15T07:14:26;101108.06;;;10.28;19.95
35435;BME280;21556;55.782;37.528;2023-04-15T07:16:54;101112.84;;;8.77;20.45
35435;BME280;21556;55.782;37.528;2023-04-15T07:19:29;101107.72;;;10.00;19.65
35435;BME280;21556;55.782;37.528;2023-04-15T07:22:01;101115.41;;;9.95;19.59
35435;BME280;21556;55.782;37.528;2023-04-15T07:24:30;101108.94;;;9.66;19.26
35435;BME280;21556;55.782;37.528;2023-04-15T07:26:57;101106.88;;;10.22;19.09
35435;BME280;21556;55.782;37.528;2023-04-15T07:29:25;101105.16;;;10.43;18.87
35435;BME280;21556;55.782;37.528;2023-04-15T07:31:52;101096.63;;;10.71;18.79
35435;BME280;21556;55.782;37.528;2023-04-15T07:34:20;101096.91;;;10.79;18.78
35435;BME280;21556;55.782;37.528;2023-04-15T07:36:47;101102.34;;;11.07;18.85
35435;BME280;21556;55.782;37.528;2023-04-15T07:39:19;101099.03;;;11.37;19.08
35435;BME280;21556;55.782;37.528;2023-04-15T07:41:46;101108.97;;;10.51;19.25
35435;BME280;21556;55.782;37.528;2023-04-15T07:44:14;101100.06;;;10.70;19.36
35435;BME280;21556;55.782;37.528;2023-04-15T07:46:43;101097.56;;;10.51;18.49
35435;BME280;21556;55.782;37.528;2023-04-15T07:49:13;101080.69;;;11.64;18.71
35435;BME280;21556;55.782;37.528;2023-04-15T07:51:41;101081.41;;;11.84;18.08
35435;BME280;21556;55.782;37.528;2023-04-15T07:54:08;101072.16;;;12.52;17.32
35435;BME280;21556;55.782;37.528;2023-04-15T07:56:41;101071.91;;;13.34;17.42
35435;BME280;21556;55.782;37.528;2023-04-15T07:59:08;101073.34;;;13.22;17.08
35435;BME280;21556;55.782;37.528;2023-04-15T08:01:38;101065.63;;;12.98;17.40
35435;BME280;21556;55.782;37.528;2023-04-15T08:04:08;101072.50;;;12.63;17.20
35435;BME280;21556;55.782;37.528;2023-04-15T08:06:36;101081.53;;;11.63;17.41
35435;BME280;21556;55.782;37.528;2023-04-15T08:09:05;101078.06;;;12.44;17.58
35435;BME280;21556;55.782;37.528;2023-04-15T08:11:33;101074.00;;;12.55;17.44
35435;BME280;21556;55.782;37.528;2023-04-15T08:14:00;101067.84;;;12.85;17.41
35435;BME280;21556;55.782;37.528;2023-04-15T08:16:27;101062.72;;;13.19;17.04
35435;BME280;21556;55.782;37.528;2023-04-15T08:18:55;101067.97;;;12.59;17.13
35435;BME280;21556;55.782;37.528;2023-04-15T08:21:23;101076.28;;;12.43;16.92
35435;BME280;21556;55.782;37.528;2023-04-15T08:23:52;101069.50;;;12.22;16.86
35435;BME280;21556;55.782;37.528;2023-04-15T08:26:20;101051.84;;;13.39;17.07
35435;BME280;21556;55.782;37.528;2023-04-15T08:28:48;101068.06;;;12.92;16.83
35435;BME280;21556;55.782;37.528;2023-04-15T08:31:16;101056.81;;;13.28;16.72
35435;BME280;21556;55.782;37.528;2023-04-15T08:33:44;101054.78;;;14.22;16.11
35435;BME280;21556;55.782;37.528;2023-04-15T08:36:12;101064.88;;;13.33;16.49
35435;BME280;21556;55.782;37.528;2023-04-15T08:38:39;101060.28;;;13.26;16.67
35435;BME280;21556;55.782;37.528;2023-04-15T08:41:14;101045.72;;;13.08;17.04
35435;BME280;21556;55.782;37.528;2023-04-15T08:43:51;101058.97;;;12.51;16.83
35435;BME280;21556;55.782;37.528;2023-04-15T08:46:22;101053.69;;;12.49;16.62
35435;BME280;21556;55.782;37.528;2023-04-15T08:48:56;101051.28;;;12.57;16.12
35435;BME280;21556;55.782;37.528;2023-04-15T08:51:24;101048.63;;;12.57;17.27
35435;BME280;21556;55.782;37.528;2023-04-15T08:53:53;101047.13;;;12.37;17.88
35435;BME280;21556;55.782;37.528;2023-04-15T08:56:23;101042.97;;;11.88;17.21
35435;BME280;21556;55.782;37.528;2023-04-15T08:58:51;101046.69;;;12.23;17.42
35435;BME280;21556;55.782;37.528;2023-04-15T09:01:23;101046.88;;;12.00;17.35
35435;BME280;21556;55.782;37.528;2023-04-15T09:07:38;101039.59;;;11.92;17.69
35435;BME280;21556;55.782;37.528;2023-04-15T09:10:05;101037.75;;;11.89;17.99
35435;BME280;21556;55.782;37.528;2023-04-15T09:12:34;101042.72;;;11.81;17.55
35435;BME280;21556;55.782;37.528;2023-04-15T09:15:03;101031.63;;;12.17;17.26
35435;BME280;21556;55.782;37.528;2023-04-15T09:17:32;101034.13;;;12.71;16.57
35435;BME280;21556;55.782;37.528;2023-04-15T09:20:08;101036.91;;;12.46;17.22
35435;BME280;21556;55.782;37.528;2023-04-15T09:22:35;101039.59;;;11.66;17.29
35435;BME280;21556;55.782;37.528;2023-04-15T09:25:24;101034.09;;;11.84;17.54
35435;BME280;21556;55.782;37.528;2023-04-15T09:27:55;101045.88;;;11.20;17.52
35435;BME280;21556;55.782;37.528;2023-04-15T09:30:24;101036.34;;;11.48;16.76
35435;BME280;21556;55.782;37.528;2023-04-15T09:33:01;101030.25;;;11.49;16.76
35435;BME280;21556;55.782;37.528;2023-04-15T09:35:39;101037.00;;;11.93;17.65
35435;BME280;21556;55.782;37.528;2023-04-15T09:38:11;101034.69;;;11.77;16.47
35435;BME280;21556;55.782;37.528;2023-04-15T09:40:45;101039.72;;;11.44;16.84
35435;BME280;21556;55.782;37.528;2023-04-15T09:43:13;101031.84;;;11.71;15.89
35435;BME280;21556;55.782;37.528;2023-04-15T09:46:02;101026.78;;;12.02;16.07
35435;BME280;21556;55.782;37.528;2023-04-15T09:48:29;101024.97;;;12.28;16.60
35435;BME280;21556;55.782;37.528;2023-04-15T09:50:58;101023.19;;;12.27;16.83
35435;BME280;21556;55.782;37.528;2023-04-15T09:53:26;101028.03;;;13.04;16.87
35435;BME280;21556;55.782;37.528;2023-04-15T09:55:55;101026.31;;;13.06;16.59
35435;BME280;21556;55.782;37.528;2023-04-15T09:58:24;101024.06;;;11.99;16.49
35435;BME280;21556;55.782;37.528;2023-04-15T10:00:56;101023.06;;;12.53;16.48
35435;BME280;21556;55.782;37.528;2023-04-15T10:03:26;101011.72;;;12.56;16.14
35435;BME280;21556;55.782;37.528;2023-04-15T10:05:56;101026.78;;;12.91;15.80
35435;BME280;21556;55.782;37.528;2023-04-15T10:08:26;101013.94;;;13.34;15.19
35435;BME280;21556;55.782;37.528;2023-04-15T10:10:54;101018.38;;;14.07;14.98
35435;BME280;21556;55.782;37.528;2023-04-15T10:13:27;101011.09;;;12.96;15.88
35435;BME280;21556;55.782;37.528;2023-04-15T10:16:10;101023.41;;;13.26;15.73
35435;BME280;21556;55.782;37.528;2023-04-15T10:19:01;101015.81;;;13.39;16.11
35435;BME280;21556;55.782;37.528;2023-04-15T10:21:30;101013.41;;;13.15;15.97
35435;BME280;21556;55.782;37.528;2023-04-15T10:23:59;101017.91;;;12.88;15.94
35435;BME280;21556;55.782;37.528;2023-04-15T10:26:28;101013.75;;;12.64;16.15
35435;BME280;21556;55.782;37.528;2023-04-15T10:28:57;101013.91;;;12.70;15.91
35435;BME280;21556;55.782;37.528;2023-04-15T10:31:25;101011.09;;;12.96;15.93
35435;BME280;21556;55.782;37.528;2023-04-15T10:33:52;101006.41;;;13.16;15.97
35435;BME280;21556;55.782;37.528;2023-04-15T10:36:20;101009.38;;;12.65;15.83
35435;BME280;21556;55.782;37.528;2023-04-15T10:38:47;101000.88;;;13.07;15.42
35435;BME280;21556;55.782;37.528;2023-04-15T10:43:52;101004.97;;;12.64;15.46
35435;BME280;21556;55.782;37.528;2023-04-15T10:46:43;101012.56;;;12.55;15.33
35435;BME280;21556;55.782;37.528;2023-04-15T10:49:15;101011.47;;;11.91;15.78
35435;BME280;21556;55.782;37.528;2023-04-15T10:51:50;101002.72;;;12.19;15.81
35435;BME280;21556;55.782;37.528;2023-04-15T10:59:37;101010.41;;;12.13;16.16
35435;BME280;21556;55.782;37.528;2023-04-15T11:02:16;101010.00;;;11.21;15.99
35435;BME280;21556;55.782;37.528;2023-04-15T11:04:55;101006.56;;;11.74;16.29
35435;BME280;21556;55.782;37.528;2023-04-15T11:07:41;101020.47;;;11.45;16.64
35435;BME280;21556;55.782;37.528;2023-04-15T11:10:50;101015.81;;;11.63;15.75
35435;BME280;21556;55.782;37.528;2023-04-15T11:13:46;101007.69;;;11.82;16.00
35435;BME280;21556;55.782;37.528;2023-04-15T11:16:24;101000.59;;;11.53;16.00
35435;BME280;21556;55.782;37.528;2023-04-15T11:18:57;101007.97;;;11.38;16.10
35435;BME280;21556;55.782;37.528;2023-04-15T11:21:32;100995.13;;;11.99;15.66
35435;BME280;21556;55.782;37.528;2023-04-15T11:24:45;100999.28;;;11.15;16.10
35435;BME280;21556;55.782;37.528;2023-04-15T11:27:51;100997.13;;;11.28;16.62
35435;BME280;21556;55.782;37.528;2023-04-15T11:31:14;100997.19;;;11.55;16.56
35435;BME280;21556;55.782;37.528;2023-04-15T11:33:55;100998.47;;;11.68;16.63
35435;BME280;21556;55.782;37.528;2023-04-15T11:36:40;100990.28;;;11.85;16.39
35435;BME280;21556;55.782;37.528;2023-04-15T11:39:29;100991.13;;;11.32;16.44
35435;BME280;21556;55.782;37.528;2023-04-15T11:41:57;100982.81;;;11.19;16.64
35435;BME280;21556;55.782;37.528;2023-04-15T11:44:29;100990.34;;;11.35;16.60
35435;BME280;21556;55.782;37.528;2023-04-15T11:46:57;100995.00;;;11.69;16.89
35435;BME280;21556;55.782;37.528;2023-04-15T11:49:32;100987.41;;;11.51;16.71
35435;BME280;21556;55.782;37.528;2023-04-15T11:51:59;100997.50;;;11.14;16.78
35435;BME280;21556;55.782;37.528;2023-04-15T11:54:28;100989.84;;;11.20;16.95
35435;BME280;21556;55.782;37.528;2023-04-15T11:57:06;100983.44;;;11.64;16.91
35435;BME280;21556;55.782;37.528;2023-04-15T11:59:42;100985.06;;;11.33;17.27
35435;BME280;21556;55.782;37.528;2023-04-15T12:02:12;100972.72;;;11.58;17.18
35435;BME280;21556;55.782;37.528;2023-04-15T12:04:42;100977.59;;;11.73;17.18
35435;BME280;21556;55.782;37.528;2023-04-15T12:07:08;100977.53;;;11.71;17.38
35435;BME280;21556;55.782;37.528;2023-04-15T12:09:41;100966.41;;;11.53;17.29
35435;BME280;21556;55.782;37.528;2023-04-15T12:12:07;100966.66;;;11.61;16.99
35435;BME280;21556;55.782;37.528;2023-04-15T12:14:33;100968.91;;;11.75;16.94
35435;BME280;21556;55.782;37.528;2023-04-15T12:17:04;100965.13;;;11.94;16.91
35435;BME280;21556;55.782;37.528;2023-04-15T12:19:38;100962.00;;;11.79;17.05
35435;BME280;21556;55.782;37.528;2023-04-15T12:22:22;100965.22;;;11.97;16.81
35435;BME280;21556;55.782;37.528;2023-04-15T12:24:53;100955.22;;;11.86;17.01
35435;BME280;21556;55.782;37.528;2023-04-15T12:27:25;100972.34;;;11.47;17.75
35435;BME280;21556;55.782;37.528;2023-04-15T12:30:03;100968.63;;;11.66;17.47
35435;BME280;21556;55.782;37.528;2023-04-15T12:32:34;100971.66;;;11.26;17.16
35435;BME280;21556;55.782;37.528;2023-04-15T12:35:04;100961.81;;;11.73;16.93
35435;BME280;21556;55.782;37.528;2023-04-15T12:37:34;100962.84;;;11.51;17.12
35435;BME280;21556;55.782;37.528;2023-04-15T12:40:01;100969.50;;;11.14;17.37
35435;BME280;21556;55.782;37.528;2023-04-15T12:42:31;100965.53;;;11.52;17.31
35435;BME280;21556;55.782;37.528;2023-04-15T12:45:00;100956.38;;;11.67;17.36
35435;BME280;21556;55.782;37.528;2023-04-15T12:47:33;100964.38;;;11.71;17.38
35435;BME280;21556;55.782;37.528;2023-04-15T12:49:59;100968.78;;;11.72;17.12
35435;BME280;21556;55.782;37.528;2023-04-15T12:52:29;100961.00;;;11.75;17.32
35435;BME280;21556;55.782;37.528;2023-04-15T12:54:56;100960.94;;;10.94;17.79
35435;BME280;21556;55.782;37.528;2023-04-15T12:57:25;100959.16;;;11.44;17.57
35435;BME280;21556;55.782;37.528;2023-04-15T12:59:54;100955.91;;;11.53;17.51
35435;BME280;21556;55.782;37.528;2023-04-15T13:02:23;100956.50;;;11.44;17.70
35435;BME280;21556;55.782;37.528;2023-04-15T13:04:56;100959.19;;;11.73;17.51
35435;BME280;21556;55.782;37.528;2023-04-15T13:07:23;100955.13;;;11.55;18.11
35435;BME280;21556;55.782;37.528;2023-04-15T13:09:49;100955.13;;;11.55;17.38
35435;BME280;21556;55.782;37.528;2023-04-15T13:12:16;100960.59;;;11.11;17.60
35435;BME280;21556;55.782;37.528;2023-04-15T13:14:43;100968.50;;;11.11;17.69
35435;BME280;21556;55.782;37.528;2023-04-15T13:17:15;100966.50;;;11.03;18.06
35435;BME280;21556;55.782;37.528;2023-04-15T13:19:50;100964.53;;;11.49;17.76
35435;BME280;21556;55.782;37.528;2023-04-15T13:22:17;100961.78;;;11.19;17.83
35435;BME280;21556;55.782;37.528;2023-04-15T13:24:47;100967.81;;;11.42;17.55
35435;BME280;21556;55.782;37.528;2023-04-15T13:27:15;100961.88;;;11.22;17.66
35435;BME280;21556;55.782;37.528;2023-04-15T13:29:43;100964.66;;;11.52;17.63
35435;BME280;21556;55.782;37.528;2023-04-15T13:32:36;100961.84;;;11.47;18.13
35435;BME280;21556;55.782;37.528;2023-04-15T13:35:15;100969.06;;;11.27;17.90
35435;BME280;21556;55.782;37.528;2023-04-15T13:37:49;100962.81;;;11.49;17.60